North Hampton, NH (03862)

5:17 AM EST on February 10, 2016 (GMT -0500)
Coastal Rockingham NHZ014 | | Change Station
CLOSE
Current Station
Personal Weather Station
Location: North Hampton, NH
Elevation: 110 ft
Nearby Weather Stations

Elev 110 ft 42.99 °N, 70.84 °W | Updated 47 seconds ago

Overcast
Overcast
18.8 °F
Feels Like 19 °F
N
0.0
Wind Variable Wind from NW
Gusts 19.0 mph

Today
High -- | Low -- °F
--% Chance of Precip.
Yesterday
High -- | Low -- °F
Precip. -- in
Pressure 29.59 in
Visibility 10.0 miles
Clouds Overcast 2900 ft
Windchill 19 °F
Dew Point 16 °F
Humidity 87%
Rainfall 0.00 in
Snow Depth Not available.
6:48 AM 5:07 PM
Waxing Crescent, 4% visible
METAR KPSM 100958Z 21001KT 10SM OVC029 M06/M09 A2958 RMK AO2A SLP020 T10641091
Pressure 29.59 in
Visibility 10.0 miles
Clouds Overcast 2900 ft
Windchill 19 °F
Dew Point 16 °F
Humidity 87%
Rainfall 0.00 in
Snow Depth Not available.
6:48 AM 5:07 PM
Waxing Crescent, 4% visible
METAR KPSM 100958Z 21001KT 10SM OVC029 M06/M09 A2958 RMK AO2A SLP020 T10641091

10-Day Weather Forecast

Almanac

Astronomy

Feb. 10, 2016 Rise Set
Actual Time
Civil Twilight
Nautical Twilight
Astronomical Twilight
Moon
Length of Visible Light
Length of Day
Tomorrow will be .
, % of the Moon is Illuminated

Today's Extremes

State Highs State Lows

Community

WunderPhotos

Upload Photos

1,891,830 photos uploaded!

WunderBlog® & News

Nearby

Air Quality

  Air Quality AQ Index Pollutant
Not available.

Snow Depth

Station Depth Elevation

Earthquake Activity

City Distance Mag. Time & Date
Minimum magnitude displayed is 2.5.

Coastal Water Temperatures

Place Temperature

Stations

Nearby Weather Stations

Station Location Temp. Windchill Dew Point Humidity Wind Precip. Elev Updated Type
                   

Watches & Warnings

There are currently no watches in effect.